Time;durP1;ratioP1;P1;durP2;ratioP2;P2;SDS_P1;SDS_P2;PMS_P1;PMS_P2;Temp;Humidity;BMP_temperature;BMP_pressure;BME280_temperature;BME280_humidity;BME280_pressure;Samples;Min_cycle;Max_cycle;Signal;HPM_P1;HPM_P2
2023/03/08 00:00:09;;;;;;;2.72;1.88;;;;;;;;;;5056977;28;20048;-66
2023/03/08 00:02:36;;;;;;;4.88;2.10;;;;;;;;;;5056553;28;20099;-66
2023/03/08 00:42:13;;;;;;;5.05;2.70;;;;;;;;;;4364622;28;20568;-66
2023/03/08 00:44:39;;;;;;;7.30;2.45;;;;;;;;;;5056464;28;20131;-66
2023/03/08 00:47:05;;;;;;;5.25;2.38;;;;;;;;;;5059945;28;20033;-66
2023/03/08 00:49:31;;;;;;;3.95;2.10;;;;;;;;;;5066113;28;20037;-66
2023/03/08 00:51:57;;;;;;;5.55;1.85;;;;;;;;;;5056710;28;20123;-66
2023/03/08 00:54:23;;;;;;;3.95;2.13;;;;;;;;;;5056452;28;20132;-66
2023/03/08 00:56:49;;;;;;;3.17;1.90;;;;;;;;;;5056859;28;20076;-66
2023/03/08 00:59:15;;;;;;;5.80;1.98;;;;;;;;;;5055240;28;20045;-66
2023/03/08 01:01:41;;;;;;;4.35;2.00;;;;;;;;;;5054910;28;20109;-66
2023/03/08 01:04:07;;;;;;;5.60;2.05;;;;;;;;;;5052995;28;20049;-66
2023/03/08 01:06:33;;;;;;;4.80;2.22;;;;;;;;;;5052316;28;20052;-66
2023/03/08 01:09:00;;;;;;;6.30;2.35;;;;;;;;;;5052985;28;20068;-66
2023/03/08 01:11:26;;;;;;;4.40;2.50;;;;;;;;;;5052204;28;20037;-66
2023/03/08 01:13:53;;;;;;;4.95;2.65;;;;;;;;;;5053535;28;20040;-66
2023/03/08 01:16:21;;;;;;;4.30;2.70;;;;;;;;;;5053231;28;20123;-66
2023/03/08 01:18:47;;;;;;;3.67;2.60;;;;;;;;;;5053189;28;20043;-66
2023/03/08 01:21:14;;;;;;;6.18;2.13;;;;;;;;;;5053024;28;20041;-66
2023/03/08 01:23:40;;;;;;;4.03;2.22;;;;;;;;;;5061094;28;20030;-66
2023/03/08 01:26:13;;;;;;;4.00;2.65;;;;;;;;;;5071812;28;20483;-66
2023/03/08 01:28:40;;;;;;;3.83;2.22;;;;;;;;;;5073225;28;20512;-66
2023/03/08 01:31:20;;;;;;;3.92;2.40;;;;;;;;;;5072843;28;20047;-66
2023/03/08 01:33:47;;;;;;;6.47;2.78;;;;;;;;;;5072968;28;20063;-66
2023/03/08 01:36:14;;;;;;;3.85;2.50;;;;;;;;;;5071904;28;20529;-66
2023/03/08 01:38:40;;;;;;;5.55;3.00;;;;;;;;;;5071176;28;20052;-66
2023/03/08 01:41:07;;;;;;;6.40;3.22;;;;;;;;;;5072936;28;20049;-66
2023/03/08 01:43:35;;;;;;;6.60;2.90;;;;;;;;;;5071458;28;20079;-66
2023/03/08 01:46:04;;;;;;;4.75;3.58;;;;;;;;;;5072228;28;20037;-66
2023/03/08 01:48:57;;;;;;;8.05;3.67;;;;;;;;;;5056878;28;20041;-66
2023/03/08 01:51:29;;;;;;;6.70;3.80;;;;;;;;;;5036632;28;20041;-66
2023/03/08 01:53:57;;;;;;;6.15;3.80;;;;;;;;;;5051915;28;20094;-66
2023/03/08 01:56:24;;;;;;;6.03;4.22;;;;;;;;;;5052759;28;20044;-66
2023/03/08 01:58:50;;;;;;;9.82;4.78;;;;;;;;;;5051232;28;20751;-66
2023/03/08 02:01:18;;;;;;;8.93;5.38;;;;;;;;;;5052035;28;20041;-66
2023/03/08 02:03:45;;;;;;;9.07;5.78;;;;;;;;;;5052506;28;20476;-66
2023/03/08 02:06:12;;;;;;;11.57;6.28;;;;;;;;;;5052293;28;20563;-66
2023/03/08 02:08:38;;;;;;;10.30;6.78;;;;;;;;;;5051610;28;20087;-66
2023/03/08 02:11:04;;;;;;;10.80;6.65;;;;;;;;;;5052601;28;20040;-66
2023/03/08 02:13:30;;;;;;;15.25;7.45;;;;;;;;;;5052099;28;20119;-66
2023/03/08 02:15:57;;;;;;;11.43;6.50;;;;;;;;;;5051150;28;20087;-66
2023/03/08 02:18:24;;;;;;;7.80;5.82;;;;;;;;;;5052236;28;20040;-66
2023/03/08 02:20:50;;;;;;;11.55;7.07;;;;;;;;;;5052057;28;20124;-66
2023/03/08 02:23:20;;;;;;;11.82;7.38;;;;;;;;;;5054609;28;20041;-66
2023/03/08 02:25:54;;;;;;;12.15;6.90;;;;;;;;;;5070359;28;20041;-66
2023/03/08 02:28:22;;;;;;;11.15;7.28;;;;;;;;;;5071587;28;20040;-66
2023/03/08 02:30:48;;;;;;;11.70;7.40;;;;;;;;;;5071171;28;20033;-66
2023/03/08 02:33:14;;;;;;;9.75;6.90;;;;;;;;;;5070754;28;20064;-66
2023/03/08 02:35:42;;;;;;;12.73;7.80;;;;;;;;;;5071758;28;20044;-66
2023/03/08 02:38:09;;;;;;;10.20;6.95;;;;;;;;;;5071095;28;20052;-66
2023/03/08 02:40:36;;;;;;;13.05;7.68;;;;;;;;;;5071793;28;20064;-66
2023/03/08 02:43:02;;;;;;;12.55;7.70;;;;;;;;;;5071431;28;20053;-66
2023/03/08 02:45:28;;;;;;;11.73;7.50;;;;;;;;;;5069506;28;20095;-66
2023/03/08 02:47:54;;;;;;;11.38;7.40;;;;;;;;;;5060996;28;20072;-66
2023/03/08 02:50:20;;;;;;;9.25;7.40;;;;;;;;;;5050293;28;20479;-66
2023/03/08 02:52:46;;;;;;;12.07;7.65;;;;;;;;;;5051128;28;20041;-66
2023/03/08 02:55:12;;;;;;;11.48;7.35;;;;;;;;;;5049973;28;20677;-66
2023/03/08 02:57:39;;;;;;;11.68;7.20;;;;;;;;;;5050364;28;20059;-66
2023/03/08 03:00:05;;;;;;;12.10;7.32;;;;;;;;;;5050819;28;20160;-66
2023/03/08 03:02:34;;;;;;;12.45;7.90;;;;;;;;;;5049940;28;20095;-66
2023/03/08 03:05:03;;;;;;;10.57;7.07;;;;;;;;;;5051036;28;20041;-66
2023/03/08 03:07:29;;;;;;;9.55;6.78;;;;;;;;;;5050927;28;20040;-66
2023/03/08 03:09:55;;;;;;;9.95;7.35;;;;;;;;;;5051207;28;20407;-66
2023/03/08 03:12:21;;;;;;;11.75;7.72;;;;;;;;;;5051129;28;20040;-66
2023/03/08 03:14:47;;;;;;;12.55;7.38;;;;;;;;;;5050676;28;20059;-66
2023/03/08 03:17:13;;;;;;;12.35;6.63;;;;;;;;;;5049739;28;20376;-66
2023/03/08 03:19:39;;;;;;;13.30;7.75;;;;;;;;;;5049801;28;20051;-66
2023/03/08 03:22:05;;;;;;;11.52;7.78;;;;;;;;;;5050803;28;20044;-66
2023/03/08 03:24:31;;;;;;;14.60;8.18;;;;;;;;;;5065594;28;20498;-66
2023/03/08 03:26:57;;;;;;;12.38;7.85;;;;;;;;;;5070342;28;20047;-66
2023/03/08 03:29:23;;;;;;;11.48;7.57;;;;;;;;;;5071197;28;20535;-66
2023/03/08 03:31:49;;;;;;;15.50;7.93;;;;;;;;;;5070544;28;20113;-66
2023/03/08 03:34:15;;;;;;;11.23;7.63;;;;;;;;;;5071053;28;20174;-66
2023/03/08 03:36:41;;;;;;;14.40;7.88;;;;;;;;;;5070781;28;20040;-66
2023/03/08 03:39:07;;;;;;;11.18;8.13;;;;;;;;;;5070318;28;20037;-66
2023/03/08 03:41:33;;;;;;;15.32;7.40;;;;;;;;;;5069086;28;20091;-66
2023/03/08 03:43:59;;;;;;;13.30;7.20;;;;;;;;;;5069975;28;20087;-66
2023/03/08 03:46:25;;;;;;;10.82;7.30;;;;;;;;;;5069096;28;20475;-66
2023/03/08 03:48:51;;;;;;;12.65;7.40;;;;;;;;;;5052129;28;20048;-66
2023/03/08 03:51:19;;;;;;;8.43;6.60;;;;;;;;;;5050787;28;20163;-66
2023/03/08 03:53:45;;;;;;;10.05;7.97;;;;;;;;;;5050235;28;20060;-66
2023/03/08 03:56:32;;;;;;;10.00;7.10;;;;;;;;;;5050779;28;20122;-66
2023/03/08 03:58:58;;;;;;;11.45;7.13;;;;;;;;;;5050708;28;20486;-66
2023/03/08 04:01:25;;;;;;;12.65;7.45;;;;;;;;;;5048439;28;20040;-66
2023/03/08 04:03:51;;;;;;;10.65;7.45;;;;;;;;;;5050512;28;20047;-66
2023/03/08 04:06:25;;;;;;;10.00;6.65;;;;;;;;;;5049076;28;20106;-66
2023/03/08 04:08:52;;;;;;;9.70;7.10;;;;;;;;;;5048684;28;20041;-66
2023/03/08 04:11:19;;;;;;;9.95;6.60;;;;;;;;;;5050613;28;20059;-66
2023/03/08 04:13:46;;;;;;;12.40;6.95;;;;;;;;;;5050498;28;20442;-66
2023/03/08 04:16:23;;;;;;;10.85;6.90;;;;;;;;;;5049961;28;20041;-66
2023/03/08 04:18:53;;;;;;;8.30;6.88;;;;;;;;;;5050575;28;20068;-66
2023/03/08 04:21:19;;;;;;;12.63;7.38;;;;;;;;;;5048863;28;20049;-66
2023/03/08 04:23:45;;;;;;;12.27;7.38;;;;;;;;;;5058733;28;20436;-66
2023/03/08 04:26:12;;;;;;;12.15;6.93;;;;;;;;;;5068869;28;20036;-66
2023/03/08 04:28:38;;;;;;;12.75;7.10;;;;;;;;;;5068820;28;20037;-66
2023/03/08 04:31:14;;;;;;;9.90;7.20;;;;;;;;;;5068519;28;20032;-66
2023/03/08 04:33:40;;;;;;;10.63;6.35;;;;;;;;;;5069001;28;20032;-66
2023/03/08 04:36:07;;;;;;;14.30;7.50;;;;;;;;;;5070053;28;20055;-66
2023/03/08 04:38:33;;;;;;;10.73;7.03;;;;;;;;;;5071686;28;20079;-66
2023/03/08 04:41:10;;;;;;;10.73;7.13;;;;;;;;;;5073723;28;20581;-66
2023/03/08 04:43:37;;;;;;;9.88;6.53;;;;;;;;;;5073547;28;20106;-66
2023/03/08 04:46:04;;;;;;;11.45;7.03;;;;;;;;;;5073871;28;20037;-66
2023/03/08 04:48:30;;;;;;;9.88;6.97;;;;;;;;;;5058105;28;20636;-66
2023/03/08 04:50:58;;;;;;;10.00;7.22;;;;;;;;;;5053510;28;20033;-66
2023/03/08 04:53:24;;;;;;;9.68;6.85;;;;;;;;;;5053775;28;20115;-66
2023/03/08 04:55:51;;;;;;;9.52;7.10;;;;;;;;;;5053840;28;20048;-66
2023/03/08 04:58:18;;;;;;;9.02;7.15;;;;;;;;;;5053235;28;20041;-66
2023/03/08 05:00:44;;;;;;;10.02;6.80;;;;;;;;;;5053549;28;20095;-66
2023/03/08 05:03:10;;;;;;;9.55;7.40;;;;;;;;;;5052328;28;20123;-66
2023/03/08 05:05:36;;;;;;;10.38;6.97;;;;;;;;;;5053662;28;20387;-66
2023/03/08 05:08:04;;;;;;;13.15;7.60;;;;;;;;;;5053078;28;20037;-66
2023/03/08 05:10:30;;;;;;;10.57;6.90;;;;;;;;;;5052156;28;20102;-66
2023/03/08 05:12:56;;;;;;;9.93;7.13;;;;;;;;;;5053230;28;20094;-66
2023/03/08 05:15:23;;;;;;;10.35;6.53;;;;;;;;;;5052484;28;20045;-66
2023/03/08 05:17:49;;;;;;;9.98;6.90;;;;;;;;;;5052018;28;20052;-66
2023/03/08 05:20:15;;;;;;;8.77;6.80;;;;;;;;;;5053312;28;20080;-66
2023/03/08 05:22:41;;;;;;;10.65;7.93;;;;;;;;;;5052981;28;20048;-66
2023/03/08 05:25:08;;;;;;;8.18;7.00;;;;;;;;;;5072032;28;20464;-66
2023/03/08 05:27:34;;;;;;;12.23;6.93;;;;;;;;;;5072480;28;20403;-66
2023/03/08 05:30:00;;;;;;;8.75;6.95;;;;;;;;;;5073071;28;20041;-66
2023/03/08 05:32:26;;;;;;;8.90;7.18;;;;;;;;;;5073708;28;20047;-66
2023/03/08 05:34:53;;;;;;;10.68;7.20;;;;;;;;;;5073611;28;20082;-66
2023/03/08 05:37:19;;;;;;;10.02;6.78;;;;;;;;;;5072929;28;20448;-66
2023/03/08 05:39:46;;;;;;;10.00;7.05;;;;;;;;;;5072184;28;20052;-66
2023/03/08 05:42:12;;;;;;;11.50;6.82;;;;;;;;;;5057281;28;20061;-66
2023/03/08 05:44:38;;;;;;;10.05;6.93;;;;;;;;;;5051233;28;20053;-66
2023/03/08 05:47:05;;;;;;;10.43;6.93;;;;;;;;;;5051766;28;20124;-66
2023/03/08 05:49:31;;;;;;;9.10;7.65;;;;;;;;;;5063036;28;20396;-66
2023/03/08 05:51:57;;;;;;;12.68;7.80;;;;;;;;;;5072268;28;20065;-66
2023/03/08 05:54:23;;;;;;;10.55;6.93;;;;;;;;;;5072902;28;20044;-66
2023/03/08 05:56:49;;;;;;;9.82;7.30;;;;;;;;;;5072910;28;20122;-66
2023/03/08 05:59:15;;;;;;;11.93;6.75;;;;;;;;;;5072462;28;20687;-66
2023/03/08 06:01:41;;;;;;;14.18;7.63;;;;;;;;;;5072974;28;20047;-66
2023/03/08 06:04:07;;;;;;;9.55;7.65;;;;;;;;;;5072895;28;20723;-65
2023/03/08 06:06:33;;;;;;;9.43;7.05;;;;;;;;;;5070654;28;20384;-66
2023/03/08 06:08:59;;;;;;;9.30;7.35;;;;;;;;;;5072586;28;20089;-66
2023/03/08 06:11:25;;;;;;;9.90;7.28;;;;;;;;;;5072913;28;20055;-66
2023/03/08 06:13:51;;;;;;;12.82;9.48;;;;;;;;;;5070703;28;20040;-66
2023/03/08 06:16:17;;;;;;;11.70;8.27;;;;;;;;;;5072927;28;20356;-66
2023/03/08 06:18:43;;;;;;;13.50;9.52;;;;;;;;;;5072747;28;20767;-66
2023/03/08 06:21:13;;;;;;;13.38;8.40;;;;;;;;;;5071868;28;20036;-66
2023/03/08 06:23:39;;;;;;;11.23;7.90;;;;;;;;;;5064954;28;20043;-66
2023/03/08 06:26:06;;;;;;;12.27;8.77;;;;;;;;;;5050992;28;20785;-66
2023/03/08 06:28:32;;;;;;;14.13;8.30;;;;;;;;;;5051827;28;20507;-66
2023/03/08 06:30:58;;;;;;;11.00;8.77;;;;;;;;;;5052261;28;20072;-66
2023/03/08 06:33:26;;;;;;;13.35;8.60;;;;;;;;;;5051326;28;20033;-66
2023/03/08 06:35:59;;;;;;;14.23;8.57;;;;;;;;;;5050381;28;20045;-66
2023/03/08 06:38:26;;;;;;;12.10;8.57;;;;;;;;;;5052336;28;20048;-66
2023/03/08 06:40:52;;;;;;;12.90;8.25;;;;;;;;;;5052049;28;20041;-66
2023/03/08 06:43:18;;;;;;;9.57;7.95;;;;;;;;;;5051302;28;20056;-66
2023/03/08 06:45:44;;;;;;;11.63;8.98;;;;;;;;;;5052002;28;20049;-66
2023/03/08 06:48:11;;;;;;;15.43;8.40;;;;;;;;;;5063285;28;20625;-66
2023/03/08 06:50:37;;;;;;;11.93;8.35;;;;;;;;;;5051670;28;20095;-66
2023/03/08 06:53:03;;;;;;;11.48;8.18;;;;;;;;;;5052207;28;20048;-66
2023/03/08 06:55:29;;;;;;;13.18;8.93;;;;;;;;;;5052167;28;20083;-66
2023/03/08 06:57:55;;;;;;;12.10;8.52;;;;;;;;;;5051124;28;20052;-66
2023/03/08 07:00:21;;;;;;;9.50;7.88;;;;;;;;;;5051537;28;20071;-66
2023/03/08 07:02:48;;;;;;;11.27;8.50;;;;;;;;;;5052028;28;20040;-66
2023/03/08 07:05:15;;;;;;;12.82;8.13;;;;;;;;;;5050847;28;20045;-66
2023/03/08 07:07:41;;;;;;;11.88;8.68;;;;;;;;;;5050221;28;20106;-66
2023/03/08 07:10:09;;;;;;;15.48;8.85;;;;;;;;;;5050111;28;20041;-66
2023/03/08 07:12:39;;;;;;;15.93;8.20;;;;;;;;;;5051400;28;20094;-66
2023/03/08 07:15:06;;;;;;;10.30;7.65;;;;;;;;;;5051597;28;20102;-66
2023/03/08 07:17:34;;;;;;;10.45;7.90;;;;;;;;;;5050090;28;20052;-66
2023/03/08 07:20:00;;;;;;;12.68;9.05;;;;;;;;;;5049379;28;20053;-66
2023/03/08 07:22:26;;;;;;;9.68;8.00;;;;;;;;;;5051026;28;20041;-65
2023/03/08 07:24:52;;;;;;;8.55;7.45;;;;;;;;;;5039081;28;20098;-65
2023/03/08 07:27:18;;;;;;;10.95;7.75;;;;;;;;;;5043655;28;20039;-65
2023/03/08 07:29:44;;;;;;;9.80;7.75;;;;;;;;;;5043552;28;20068;-65
2023/03/08 07:32:11;;;;;;;11.10;7.32;;;;;;;;;;5045667;28;20045;-65
2023/03/08 07:34:37;;;;;;;11.35;7.78;;;;;;;;;;5044829;28;20372;-65
2023/03/08 07:37:03;;;;;;;10.55;7.57;;;;;;;;;;5043031;28;20052;-65
2023/03/08 07:39:29;;;;;;;10.63;6.85;;;;;;;;;;5035298;28;20047;-65
2023/03/08 07:41:55;;;;;;;10.10;7.72;;;;;;;;;;5040538;28;20531;-65
2023/03/08 07:44:21;;;;;;;8.05;6.93;;;;;;;;;;5042714;28;20052;-65
2023/03/08 07:46:47;;;;;;;12.32;7.30;;;;;;;;;;5043100;28;20048;-65
2023/03/08 07:49:13;;;;;;;11.52;7.32;;;;;;;;;;5041284;28;20543;-67
2023/03/08 07:51:39;;;;;;;8.40;7.00;;;;;;;;;;5040380;28;20140;-66
2023/03/08 07:54:06;;;;;;;11.07;6.78;;;;;;;;;;5042652;28;20041;-66
2023/03/08 07:56:32;;;;;;;8.55;6.55;;;;;;;;;;5042702;28;20090;-67
2023/03/08 07:58:58;;;;;;;9.35;6.50;;;;;;;;;;5051826;28;20041;-65
2023/03/08 08:01:24;;;;;;;10.63;7.00;;;;;;;;;;5050146;28;20086;-67
2023/03/08 08:03:50;;;;;;;15.65;9.13;;;;;;;;;;5053763;28;20083;-67
2023/03/08 08:06:16;;;;;;;12.60;8.60;;;;;;;;;;5058585;28;20041;-67
2023/03/08 08:08:42;;;;;;;9.68;7.20;;;;;;;;;;5055066;28;20036;-66
2023/03/08 08:11:15;;;;;;;11.25;7.50;;;;;;;;;;5048595;28;20040;-68
2023/03/08 08:13:42;;;;;;;10.63;6.90;;;;;;;;;;5051910;28;20121;-67
2023/03/08 08:16:09;;;;;;;11.50;7.30;;;;;;;;;;5060594;28;20052;-66
2023/03/08 08:18:35;;;;;;;9.60;7.43;;;;;;;;;;5066501;28;20100;-65
2023/03/08 08:21:05;;;;;;;11.27;7.75;;;;;;;;;;5059625;28;20041;-65
2023/03/08 08:23:32;;;;;;;11.15;7.85;;;;;;;;;;5062715;28;20471;-65
2023/03/08 08:25:58;;;;;;;13.10;8.18;;;;;;;;;;5072583;28;20091;-65
2023/03/08 08:28:24;;;;;;;11.98;8.50;;;;;;;;;;5055519;28;20048;-65
2023/03/08 08:30:57;;;;;;;11.25;7.70;;;;;;;;;;5066651;28;20037;-66
2023/03/08 08:33:23;;;;;;;9.88;7.25;;;;;;;;;;5067612;28;20043;-67
2023/03/08 08:35:49;;;;;;;10.88;7.40;;;;;;;;;;5064808;28;20056;-70
2023/03/08 08:38:15;;;;;;;12.02;7.50;;;;;;;;;;5051823;28;20091;-67
2023/03/08 08:40:41;;;;;;;9.77;7.50;;;;;;;;;;5048758;28;20587;-67
2023/03/08 08:43:07;;;;;;;11.63;7.70;;;;;;;;;;5051296;28;20064;-66
2023/03/08 08:45:33;;;;;;;9.48;7.45;;;;;;;;;;5059782;28;20518;-67
2023/03/08 08:47:59;;;;;;;11.85;8.05;;;;;;;;;;5059232;28;20730;-68
2023/03/08 08:50:25;;;;;;;11.40;7.82;;;;;;;;;;5054578;28;20056;-68
2023/03/08 08:52:51;;;;;;;11.05;8.07;;;;;;;;;;5051591;28;20052;-67
2023/03/08 08:55:17;;;;;;;11.38;8.50;;;;;;;;;;5061320;28;20047;-68
2023/03/08 08:57:43;;;;;;;13.90;8.82;;;;;;;;;;5058326;28;20076;-69
2023/03/08 09:00:10;;;;;;;13.35;9.18;;;;;;;;;;5051954;28;20063;-69
2023/03/08 09:02:36;;;;;;;12.77;9.52;;;;;;;;;;5052248;28;20044;-69
2023/03/08 09:05:02;;;;;;;16.95;10.65;;;;;;;;;;5051630;28;20122;-69
2023/03/08 09:07:28;;;;;;;15.23;10.90;;;;;;;;;;5055138;28;20041;-70
2023/03/08 09:09:54;;;;;;;15.38;11.48;;;;;;;;;;5057293;28;20106;-70
2023/03/08 09:12:20;;;;;;;16.02;11.15;;;;;;;;;;5050692;28;20082;-68
2023/03/08 09:14:47;;;;;;;15.82;11.35;;;;;;;;;;5052889;28;20045;-68
2023/03/08 09:17:13;;;;;;;15.70;10.77;;;;;;;;;;5058381;28;20411;-69
2023/03/08 09:19:39;;;;;;;14.27;10.32;;;;;;;;;;5062704;28;20075;-68
2023/03/08 09:22:05;;;;;;;14.35;10.88;;;;;;;;;;5048626;28;20048;-68
2023/03/08 09:24:31;;;;;;;13.68;10.40;;;;;;;;;;5051337;28;20183;-68
2023/03/08 09:26:57;;;;;;;16.35;11.23;;;;;;;;;;5064243;28;20491;-68
2023/03/08 09:29:23;;;;;;;16.42;11.07;;;;;;;;;;5052784;28;20037;-67
2023/03/08 09:31:49;;;;;;;15.18;11.30;;;;;;;;;;5058513;28;20048;-68
2023/03/08 09:34:15;;;;;;;19.92;11.65;;;;;;;;;;5064702;28;20101;-69
2023/03/08 09:36:42;;;;;;;16.40;12.05;;;;;;;;;;5053621;28;20052;-69
2023/03/08 09:39:09;;;;;;;17.60;11.95;;;;;;;;;;5045056;28;20041;-69
2023/03/08 09:41:45;;;;;;;18.08;12.20;;;;;;;;;;5049768;28;20053;-68
2023/03/08 09:44:26;;;;;;;17.33;12.20;;;;;;;;;;5053497;28;20037;-69
2023/03/08 09:46:59;;;;;;;15.60;10.88;;;;;;;;;;5053147;28;20045;-68
2023/03/08 09:49:27;;;;;;;15.93;11.15;;;;;;;;;;5059422;28;20045;-69
2023/03/08 09:51:58;;;;;;;14.07;10.77;;;;;;;;;;5054615;28;20044;-69
2023/03/08 09:54:25;;;;;;;14.50;11.00;;;;;;;;;;5047844;28;20049;-69
2023/03/08 09:56:52;;;;;;;16.20;11.90;;;;;;;;;;5057694;28;20041;-69
2023/03/08 09:59:27;;;;;;;16.58;11.82;;;;;;;;;;5058103;28;20041;-69
2023/03/08 10:01:53;;;;;;;18.95;12.10;;;;;;;;;;5050787;28;20044;-69
2023/03/08 10:04:39;;;;;;;15.82;11.95;;;;;;;;;;5051748;28;20052;-69
2023/03/08 10:07:18;;;;;;;14.70;10.65;;;;;;;;;;5054934;28;20432;-69
2023/03/08 10:09:53;;;;;;;18.30;11.38;;;;;;;;;;5061390;28;20533;-69
2023/03/08 10:12:22;;;;;;;13.85;10.75;;;;;;;;;;5062897;28;20037;-68
2023/03/08 10:14:49;;;;;;;15.35;11.02;;;;;;;;;;5061585;28;20076;-69
2023/03/08 10:17:23;;;;;;;14.50;11.32;;;;;;;;;;5049710;28;20044;-69
2023/03/08 10:19:56;;;;;;;16.17;11.15;;;;;;;;;;5050153;28;20107;-69
2023/03/08 10:22:26;;;;;;;17.98;12.30;;;;;;;;;;5058652;28;20049;-68
2023/03/08 10:24:59;;;;;;;16.20;11.80;;;;;;;;;;5052304;28;20056;-68
2023/03/08 10:27:26;;;;;;;15.15;11.60;;;;;;;;;;5055876;28;20041;-70
2023/03/08 10:29:53;;;;;;;16.33;11.07;;;;;;;;;;5057593;28;20124;-70
2023/03/08 10:32:19;;;;;;;15.00;10.10;;;;;;;;;;5051120;28;20044;-69
2023/03/08 10:34:46;;;;;;;12.70;9.40;;;;;;;;;;5057510;28;20491;-69
2023/03/08 10:37:13;;;;;;;15.35;9.85;;;;;;;;;;5052090;28;20048;-68
2023/03/08 10:39:51;;;;;;;13.98;10.10;;;;;;;;;;5050619;28;20036;-69
2023/03/08 10:42:20;;;;;;;11.45;8.57;;;;;;;;;;5054057;28;20088;-69
2023/03/08 10:44:57;;;;;;;12.75;9.05;;;;;;;;;;5049848;28;20045;-68
2023/03/08 10:47:23;;;;;;;10.77;8.57;;;;;;;;;;5055912;28;20043;-69
2023/03/08 10:50:02;;;;;;;10.60;7.70;;;;;;;;;;5064381;28;20044;-66
2023/03/08 10:52:28;;;;;;;10.40;7.60;;;;;;;;;;5052264;28;20377;-66
2023/03/08 10:55:01;;;;;;;9.32;7.40;;;;;;;;;;5050447;28;20083;-67
2023/03/08 10:57:28;;;;;;;13.77;7.40;;;;;;;;;;5051546;28;20120;-66
2023/03/08 10:59:56;;;;;;;11.52;8.27;;;;;;;;;;5053636;28;20447;-68
2023/03/08 11:02:23;;;;;;;11.80;8.27;;;;;;;;;;5051594;28;20102;-68
2023/03/08 11:04:56;;;;;;;12.63;8.23;;;;;;;;;;5048244;28;20102;-66
2023/03/08 11:07:24;;;;;;;11.73;7.90;;;;;;;;;;5055605;28;20127;-68
2023/03/08 11:09:50;;;;;;;12.23;7.32;;;;;;;;;;5063175;28;20143;-66
2023/03/08 11:12:23;;;;;;;10.05;7.45;;;;;;;;;;5049646;28;20585;-68
2023/03/08 11:14:49;;;;;;;10.60;7.70;;;;;;;;;;5048591;28;20045;-68
2023/03/08 11:17:22;;;;;;;12.55;8.13;;;;;;;;;;5049749;28;20415;-68
2023/03/08 11:19:59;;;;;;;10.27;6.72;;;;;;;;;;5048360;28;20048;-68
2023/03/08 11:22:34;;;;;;;12.23;7.60;;;;;;;;;;5048330;28;20143;-68
2023/03/08 11:25:12;;;;;;;8.90;6.80;;;;;;;;;;5053080;28;20181;-70
2023/03/08 11:27:46;;;;;;;10.05;7.55;;;;;;;;;;5048748;28;20049;-68
2023/03/08 11:30:15;;;;;;;10.52;7.47;;;;;;;;;;5054607;28;20041;-68
2023/03/08 11:32:41;;;;;;;9.95;7.53;;;;;;;;;;5048515;28;20116;-69
2023/03/08 11:35:10;;;;;;;12.05;7.93;;;;;;;;;;5067146;28;20041;-69
2023/03/08 11:38:08;;;;;;;11.00;7.13;;;;;;;;;;5046934;28;20091;-65
2023/03/08 11:40:47;;;;;;;11.30;7.65;;;;;;;;;;5039442;28;20060;-67
2023/03/08 11:43:31;;;;;;;10.70;7.25;;;;;;;;;;5055706;28;20056;-66
2023/03/08 11:46:16;;;;;;;12.82;7.18;;;;;;;;;;5060900;28;20423;-64
2023/03/08 11:48:58;;;;;;;13.30;7.88;;;;;;;;;;5051364;28;20037;-68
2023/03/08 11:51:24;;;;;;;13.13;7.85;;;;;;;;;;5065968;28;20484;-69
2023/03/08 11:53:56;;;;;;;15.63;8.73;;;;;;;;;;5049790;28;20045;-69
2023/03/08 11:56:28;;;;;;;12.47;6.93;;;;;;;;;;5043960;28;20511;-69
2023/03/08 11:59:03;;;;;;;14.10;7.40;;;;;;;;;;5057354;28;20368;-69
2023/03/08 12:01:38;;;;;;;14.75;7.88;;;;;;;;;;5060998;28;20439;-67
2023/03/08 12:04:11;;;;;;;11.50;7.50;;;;;;;;;;5064363;28;20134;-66
2023/03/08 12:06:39;;;;;;;13.15;7.05;;;;;;;;;;5051627;28;20036;-67
2023/03/08 12:09:24;;;;;;;11.30;6.60;;;;;;;;;;5047764;28;20041;-67
2023/03/08 12:11:57;;;;;;;9.82;6.25;;;;;;;;;;5058156;28;20138;-66
2023/03/08 12:14:27;;;;;;;12.23;6.43;;;;;;;;;;5049960;28;20167;-65
2023/03/08 12:17:13;;;;;;;12.13;7.15;;;;;;;;;;5050474;28;20056;-67
2023/03/08 12:19:47;;;;;;;11.15;6.97;;;;;;;;;;5051317;28;20037;-66
2023/03/08 12:22:29;;;;;;;13.00;7.45;;;;;;;;;;5049076;28;20041;-68
2023/03/08 12:25:14;;;;;;;10.25;6.68;;;;;;;;;;5055919;28;20099;-67
2023/03/08 12:27:47;;;;;;;10.98;6.75;;;;;;;;;;5053341;28;20045;-69
2023/03/08 12:30:21;;;;;;;12.80;6.78;;;;;;;;;;5049252;28;20041;-67
2023/03/08 12:32:48;;;;;;;7.97;5.15;;;;;;;;;;5054605;28;20071;-65
2023/03/08 12:35:14;;;;;;;9.20;5.63;;;;;;;;;;5053443;28;20040;-67
2023/03/08 12:37:40;;;;;;;9.85;5.68;;;;;;;;;;5054334;28;20040;-65
2023/03/08 12:40:10;;;;;;;7.82;5.22;;;;;;;;;;5053150;28;20380;-67
2023/03/08 12:42:39;;;;;;;9.73;4.63;;;;;;;;;;5049633;28;21729;-66
2023/03/08 12:45:25;;;;;;;8.05;4.85;;;;;;;;;;5052132;28;20085;-66
2023/03/08 12:48:07;;;;;;;10.75;4.45;;;;;;;;;;5060565;28;20440;-69
2023/03/08 12:50:33;;;;;;;;;;;;;;;;;;5063984;28;20087;-66
2023/03/08 12:52:59;;;;;;;8.40;3.72;;;;;;;;;;5058235;28;19967;-64
2023/03/08 12:55:30;;;;;;;7.97;4.18;;;;;;;;;;5052543;28;20056;-67
2023/03/08 12:57:58;;;;;;;7.13;3.90;;;;;;;;;;5054976;28;20575;-66
2023/03/08 13:00:24;;;;;;;7.10;3.70;;;;;;;;;;5055498;28;20040;-66
2023/03/08 13:03:09;;;;;;;8.35;3.78;;;;;;;;;;5058909;28;20049;-68
2023/03/08 13:05:36;;;;;;;10.60;3.88;;;;;;;;;;5059656;28;20053;-65
2023/03/08 13:08:12;;;;;;;7.05;3.20;;;;;;;;;;5067661;28;20079;-66
2023/03/08 13:10:56;;;;;;;6.85;3.88;;;;;;;;;;5054100;28;20044;-66
2023/03/08 13:13:27;;;;;;;6.75;3.15;;;;;;;;;;5058437;28;20037;-68
2023/03/08 13:16:14;;;;;;;8.18;3.70;;;;;;;;;;5055030;28;20060;-67
2023/03/08 13:18:43;;;;;;;6.13;3.67;;;;;;;;;;5057387;28;20104;-67
2023/03/08 13:21:15;;;;;;;10.32;3.72;;;;;;;;;;5055968;28;20132;-67
2023/03/08 13:23:46;;;;;;;8.15;3.55;;;;;;;;;;5050946;28;20045;-68
2023/03/08 13:26:26;;;;;;;5.85;3.20;;;;;;;;;;5053168;28;20111;-67
2023/03/08 13:28:53;;;;;;;9.27;3.00;;;;;;;;;;5060352;28;20089;-68
2023/03/08 13:31:20;;;;;;;5.43;2.95;;;;;;;;;;5061446;28;20155;-68
2023/03/08 13:33:48;;;;;;;8.02;3.47;;;;;;;;;;5062212;28;20369;-67
2023/03/08 13:36:18;;;;;;;6.05;3.15;;;;;;;;;;5059853;28;20045;-67
2023/03/08 13:38:44;;;;;;;9.20;3.53;;;;;;;;;;5059581;28;20068;-68
2023/03/08 13:41:10;;;;;;;5.20;2.78;;;;;;;;;;5059049;28;20045;-68
2023/03/08 13:43:36;;;;;;;7.07;2.67;;;;;;;;;;5052326;28;20101;-67
2023/03/08 13:46:04;;;;;;;6.85;2.75;;;;;;;;;;5049813;28;20045;-68
2023/03/08 13:48:31;;;;;;;5.47;2.50;;;;;;;;;;5061729;28;20148;-66
2023/03/08 13:50:58;;;;;;;5.10;2.20;;;;;;;;;;5057645;28;20044;-67
2023/03/08 13:53:29;;;;;;;4.65;2.47;;;;;;;;;;5049985;28;20120;-66
2023/03/08 13:55:59;;;;;;;6.40;2.83;;;;;;;;;;5049992;28;20117;-68
2023/03/08 13:58:25;;;;;;;4.22;2.38;;;;;;;;;;5056614;28;20048;-68
2023/03/08 14:00:59;;;;;;;5.72;2.67;;;;;;;;;;5058086;28;20064;-67
2023/03/08 14:03:26;;;;;;;7.15;2.70;;;;;;;;;;5059263;28;20033;-67
2023/03/08 14:05:52;;;;;;;5.70;2.70;;;;;;;;;;5053326;28;20053;-68
2023/03/08 14:08:23;;;;;;;6.47;2.97;;;;;;;;;;5057830;28;20082;-67
2023/03/08 14:11:07;;;;;;;4.88;2.58;;;;;;;;;;5058543;28;20037;-67
2023/03/08 14:13:34;;;;;;;6.93;3.35;;;;;;;;;;5058319;28;20088;-67
2023/03/08 14:16:05;;;;;;;5.68;3.10;;;;;;;;;;5055728;28;20052;-68
2023/03/08 14:18:33;;;;;;;6.18;2.97;;;;;;;;;;5057330;28;20076;-67
2023/03/08 14:21:19;;;;;;;6.70;3.05;;;;;;;;;;5061430;28;20040;-65
2023/03/08 14:23:47;;;;;;;5.63;2.70;;;;;;;;;;5062503;28;20051;-67
2023/03/08 14:26:23;;;;;;;7.13;3.20;;;;;;;;;;5050614;28;20037;-68
2023/03/08 14:28:49;;;;;;;7.30;3.05;;;;;;;;;;5067483;28;20049;-67
2023/03/08 14:31:28;;;;;;;6.93;3.00;;;;;;;;;;5055448;28;20068;-66
2023/03/08 14:33:55;;;;;;;4.93;2.78;;;;;;;;;;5067180;28;20047;-69
2023/03/08 14:36:21;;;;;;;6.30;2.90;;;;;;;;;;5059961;28;20037;-67
2023/03/08 14:38:48;;;;;;;5.65;2.88;;;;;;;;;;5055535;28;20048;-66
2023/03/08 14:41:14;;;;;;;7.90;2.90;;;;;;;;;;5051458;28;20048;-67
2023/03/08 14:43:46;;;;;;;8.77;2.90;;;;;;;;;;5060060;28;20044;-66
2023/03/08 14:46:19;;;;;;;8.03;2.97;;;;;;;;;;5050672;28;20120;-67
2023/03/08 14:48:56;;;;;;;5.00;3.33;;;;;;;;;;5051918;28;20029;-67
2023/03/08 14:51:22;;;;;;;8.23;4.00;;;;;;;;;;5051849;28;20047;-67
2023/03/08 14:53:59;;;;;;;8.27;4.50;;;;;;;;;;5050548;28;20044;-68
2023/03/08 14:56:25;;;;;;;7.32;4.18;;;;;;;;;;5057103;28;20045;-66
2023/03/08 14:58:52;;;;;;;10.30;3.85;;;;;;;;;;5051897;28;20053;-66
2023/03/08 15:01:28;;;;;;;7.68;4.47;;;;;;;;;;5053510;28;20041;-68
2023/03/08 15:03:55;;;;;;;8.85;3.72;;;;;;;;;;5056132;28;20049;-67
2023/03/08 15:06:22;;;;;;;9.70;4.68;;;;;;;;;;5060908;28;20044;-66
2023/03/08 15:08:49;;;;;;;8.30;4.40;;;;;;;;;;5053932;28;20040;-66
2023/03/08 15:11:15;;;;;;;7.10;3.47;;;;;;;;;;5054535;28;20040;-69
2023/03/08 15:13:41;;;;;;;8.43;3.78;;;;;;;;;;5047904;28;20075;-69
2023/03/08 15:16:07;;;;;;;9.65;4.22;;;;;;;;;;5052501;28;20041;-69
2023/03/08 15:18:33;;;;;;;8.15;3.70;;;;;;;;;;5066849;28;20072;-69